sensor_id;sensor_type;location;lat;lon;timestamp;pressure;altitude;pressure_sealevel;temperature;humidity
50933;BME280;36921;49.006;9.292;2022-07-31T00:00:41;98959.25;;;15.96;85.56
50933;BME280;36921;49.006;9.292;2022-07-31T00:03:07;98963.03;;;15.95;84.90
50933;BME280;36921;49.006;9.292;2022-07-31T00:05:33;98957.09;;;15.87;84.93
50933;BME280;36921;49.006;9.292;2022-07-31T00:08:00;98954.47;;;15.80;87.60
50933;BME280;36921;49.006;9.292;2022-07-31T00:10:25;98960.28;;;15.72;89.99
50933;BME280;36921;49.006;9.292;2022-07-31T00:12:51;98960.53;;;15.64;90.92
50933;BME280;36921;49.006;9.292;2022-07-31T00:15:17;98956.03;;;15.57;92.20
50933;BME280;36921;49.006;9.292;2022-07-31T00:17:44;98958.53;;;15.59;91.48
50933;BME280;36921;49.006;9.292;2022-07-31T00:20:11;98955.69;;;15.66;88.41
50933;BME280;36921;49.006;9.292;2022-07-31T00:22:40;98953.72;;;15.73;86.93
50933;BME280;36921;49.006;9.292;2022-07-31T00:25:07;98955.16;;;15.75;88.70
50933;BME280;36921;49.006;9.292;2022-07-31T00:27:32;98960.97;;;15.79;90.35
50933;BME280;36921;49.006;9.292;2022-07-31T00:29:58;98947.13;;;15.81;89.32
50933;BME280;36921;49.006;9.292;2022-07-31T00:32:23;98947.94;;;15.81;87.97
50933;BME280;36921;49.006;9.292;2022-07-31T00:34:49;98948.53;;;15.83;88.32
50933;BME280;36921;49.006;9.292;2022-07-31T00:37:14;98955.44;;;15.86;87.25
50933;BME280;36921;49.006;9.292;2022-07-31T00:39:40;98948.44;;;15.90;85.92
50933;BME280;36921;49.006;9.292;2022-07-31T00:42:15;98946.56;;;15.90;87.31
50933;BME280;36921;49.006;9.292;2022-07-31T00:44:41;98944.03;;;15.89;87.80
50933;BME280;36921;49.006;9.292;2022-07-31T00:47:06;98951.53;;;15.93;89.58
50933;BME280;36921;49.006;9.292;2022-07-31T00:49:31;98945.94;;;16.00;88.39
50933;BME280;36921;49.006;9.292;2022-07-31T00:51:57;98944.31;;;15.99;86.17
50933;BME280;36921;49.006;9.292;2022-07-31T00:54:22;98945.59;;;15.96;84.37
50933;BME280;36921;49.006;9.292;2022-07-31T00:56:47;98948.06;;;15.98;91.11
50933;BME280;36921;49.006;9.292;2022-07-31T00:59:13;98936.72;;;16.13;91.08
50933;BME280;36921;49.006;9.292;2022-07-31T01:01:38;98936.47;;;16.03;91.92
50933;BME280;36921;49.006;9.292;2022-07-31T01:04:04;98951.53;;;16.05;90.84
50933;BME280;36921;49.006;9.292;2022-07-31T01:06:29;98952.00;;;15.90;89.64
50933;BME280;36921;49.006;9.292;2022-07-31T01:08:55;98942.13;;;15.89;87.42
50933;BME280;36921;49.006;9.292;2022-07-31T01:11:25;98948.88;;;15.75;89.31
50933;BME280;36921;49.006;9.292;2022-07-31T01:13:57;98943.47;;;15.68;91.21
50933;BME280;36921;49.006;9.292;2022-07-31T01:16:26;98944.53;;;15.86;91.57
50933;BME280;36921;49.006;9.292;2022-07-31T01:18:54;98937.03;;;15.81;90.62
50933;BME280;36921;49.006;9.292;2022-07-31T01:24:43;98936.47;;;15.61;91.96
50933;BME280;36921;49.006;9.292;2022-07-31T01:29:48;98945.66;;;15.48;94.39
50933;BME280;36921;49.006;9.292;2022-07-31T01:32:24;98941.09;;;15.30;96.31
50933;BME280;36921;49.006;9.292;2022-07-31T01:35:05;98948.84;;;15.33;97.77
50933;BME280;36921;49.006;9.292;2022-07-31T01:37:40;98946.75;;;15.47;95.40
50933;BME280;36921;49.006;9.292;2022-07-31T01:40:14;98943.88;;;15.42;95.88
50933;BME280;36921;49.006;9.292;2022-07-31T01:42:49;98955.25;;;15.39;96.63
50933;BME280;36921;49.006;9.292;2022-07-31T01:45:17;98950.34;;;15.29;95.65
50933;BME280;36921;49.006;9.292;2022-07-31T01:47:44;98951.28;;;15.23;98.36
50933;BME280;36921;49.006;9.292;2022-07-31T01:50:11;98946.53;;;15.30;97.00
50933;BME280;36921;49.006;9.292;2022-07-31T01:52:38;98939.53;;;15.22;98.04
50933;BME280;36921;49.006;9.292;2022-07-31T01:55:05;98948.72;;;15.09;99.53
50933;BME280;36921;49.006;9.292;2022-07-31T01:57:34;98947.34;;;15.00;100.00
50933;BME280;36921;49.006;9.292;2022-07-31T02:00:05;98943.03;;;14.93;100.00
50933;BME280;36921;49.006;9.292;2022-07-31T02:02:33;98940.41;;;14.86;100.00
50933;BME280;36921;49.006;9.292;2022-07-31T02:05:00;98944.19;;;14.85;100.00
50933;BME280;36921;49.006;9.292;2022-07-31T02:07:26;98948.66;;;14.79;100.00
50933;BME280;36921;49.006;9.292;2022-07-31T02:09:53;98945.16;;;14.72;100.00
50933;BME280;36921;49.006;9.292;2022-07-31T02:12:21;98952.75;;;14.70;100.00
50933;BME280;36921;49.006;9.292;2022-07-31T02:14:47;98948.66;;;14.61;100.00
50933;BME280;36921;49.006;9.292;2022-07-31T02:17:15;98938.13;;;14.64;100.00
50933;BME280;36921;49.006;9.292;2022-07-31T02:19:41;98946.16;;;14.78;100.00
50933;BME280;36921;49.006;9.292;2022-07-31T02:22:07;98945.72;;;14.81;100.00
50933;BME280;36921;49.006;9.292;2022-07-31T02:24:33;98945.56;;;14.76;100.00
50933;BME280;36921;49.006;9.292;2022-07-31T02:26:59;98931.34;;;14.74;100.00
50933;BME280;36921;49.006;9.292;2022-07-31T02:29:30;98936.63;;;14.68;100.00
50933;BME280;36921;49.006;9.292;2022-07-31T02:31:57;98938.88;;;14.72;100.00
50933;BME280;36921;49.006;9.292;2022-07-31T02:34:23;98939.72;;;14.72;100.00
50933;BME280;36921;49.006;9.292;2022-07-31T02:36:51;98934.97;;;14.86;100.00
50933;BME280;36921;49.006;9.292;2022-07-31T02:39:18;98934.88;;;14.74;100.00
50933;BME280;36921;49.006;9.292;2022-07-31T02:41:45;98941.63;;;14.72;100.00
50933;BME280;36921;49.006;9.292;2022-07-31T02:44:12;98939.03;;;14.58;100.00
50933;BME280;36921;49.006;9.292;2022-07-31T02:46:39;98937.72;;;14.42;100.00
50933;BME280;36921;49.006;9.292;2022-07-31T02:49:05;98934.94;;;14.49;100.00
50933;BME280;36921;49.006;9.292;2022-07-31T02:51:32;98934.06;;;14.48;100.00
50933;BME280;36921;49.006;9.292;2022-07-31T02:53:58;98937.41;;;14.51;100.00
50933;BME280;36921;49.006;9.292;2022-07-31T02:56:24;98942.16;;;14.62;100.00
50933;BME280;36921;49.006;9.292;2022-07-31T02:58:49;98941.41;;;14.55;100.00
50933;BME280;36921;49.006;9.292;2022-07-31T03:01:15;98936.16;;;14.53;100.00
50933;BME280;36921;49.006;9.292;2022-07-31T03:03:41;98944.22;;;14.41;100.00
50933;BME280;36921;49.006;9.292;2022-07-31T03:06:06;98934.91;;;14.31;100.00
50933;BME280;36921;49.006;9.292;2022-07-31T03:08:32;98932.03;;;14.25;100.00
50933;BME280;36921;49.006;9.292;2022-07-31T03:10:57;98934.75;;;14.25;100.00
50933;BME280;36921;49.006;9.292;2022-07-31T03:13:24;98934.59;;;14.20;100.00
50933;BME280;36921;49.006;9.292;2022-07-31T03:15:52;98933.69;;;14.01;100.00
50933;BME280;36921;49.006;9.292;2022-07-31T03:18:18;98934.59;;;13.95;100.00
50933;BME280;36921;49.006;9.292;2022-07-31T03:20:46;98926.50;;;13.89;100.00
50933;BME280;36921;49.006;9.292;2022-07-31T03:23:16;98933.59;;;13.90;100.00
50933;BME280;36921;49.006;9.292;2022-07-31T03:25:44;98935.84;;;13.93;100.00
50933;BME280;36921;49.006;9.292;2022-07-31T03:28:10;98937.13;;;13.90;100.00
50933;BME280;36921;49.006;9.292;2022-07-31T03:30:35;98938.41;;;13.88;100.00
50933;BME280;36921;49.006;9.292;2022-07-31T03:33:01;98939.69;;;13.85;100.00
50933;BME280;36921;49.006;9.292;2022-07-31T03:35:27;98945.56;;;13.82;100.00
50933;BME280;36921;49.006;9.292;2022-07-31T03:37:53;98944.75;;;13.81;100.00
50933;BME280;36921;49.006;9.292;2022-07-31T03:40:18;98934.25;;;13.85;100.00
50933;BME280;36921;49.006;9.292;2022-07-31T03:42:45;98939.13;;;13.76;100.00
50933;BME280;36921;49.006;9.292;2022-07-31T03:45:12;98933.06;;;13.74;100.00
50933;BME280;36921;49.006;9.292;2022-07-31T03:47:37;98940.50;;;13.86;100.00
50933;BME280;36921;49.006;9.292;2022-07-31T03:50:05;98943.22;;;13.86;100.00
50933;BME280;36921;49.006;9.292;2022-07-31T03:52:31;98939.81;;;13.97;100.00
50933;BME280;36921;49.006;9.292;2022-07-31T03:54:56;98942.53;;;13.97;100.00
50933;BME280;36921;49.006;9.292;2022-07-31T03:57:22;98947.34;;;13.95;100.00
50933;BME280;36921;49.006;9.292;2022-07-31T03:59:50;98944.63;;;13.95;100.00
50933;BME280;36921;49.006;9.292;2022-07-31T04:02:16;98950.13;;;13.88;100.00
50933;BME280;36921;49.006;9.292;2022-07-31T04:04:42;98938.03;;;13.84;100.00
50933;BME280;36921;49.006;9.292;2022-07-31T04:07:08;98947.41;;;13.88;100.00
50933;BME280;36921;49.006;9.292;2022-07-31T04:09:34;98949.91;;;13.90;100.00
50933;BME280;36921;49.006;9.292;2022-07-31T04:12:00;98954.09;;;13.86;100.00
50933;BME280;36921;49.006;9.292;2022-07-31T04:14:25;98944.97;;;14.05;100.00
50933;BME280;36921;49.006;9.292;2022-07-31T04:16:51;98936.81;;;14.05;100.00
50933;BME280;36921;49.006;9.292;2022-07-31T04:19:16;98933.84;;;14.07;100.00
50933;BME280;36921;49.006;9.292;2022-07-31T04:21:42;98939.75;;;14.03;100.00
50933;BME280;36921;49.006;9.292;2022-07-31T04:24:07;98936.16;;;14.10;100.00
50933;BME280;36921;49.006;9.292;2022-07-31T04:26:33;98929.44;;;14.12;100.00
50933;BME280;36921;49.006;9.292;2022-07-31T04:28:58;98939.25;;;14.13;100.00
50933;BME280;36921;49.006;9.292;2022-07-31T04:31:24;98941.13;;;14.13;100.00
50933;BME280;36921;49.006;9.292;2022-07-31T04:33:49;98937.59;;;14.12;100.00
50933;BME280;36921;49.006;9.292;2022-07-31T04:36:15;98946.97;;;14.16;100.00
50933;BME280;36921;49.006;9.292;2022-07-31T04:38:42;98954.84;;;14.24;100.00
50933;BME280;36921;49.006;9.292;2022-07-31T04:41:07;98948.34;;;14.25;100.00
50933;BME280;36921;49.006;9.292;2022-07-31T04:43:32;98949.06;;;14.39;100.00
50933;BME280;36921;49.006;9.292;2022-07-31T04:45:58;98958.75;;;14.54;100.00
50933;BME280;36921;49.006;9.292;2022-07-31T04:48:23;98970.81;;;14.64;100.00
50933;BME280;36921;49.006;9.292;2022-07-31T04:50:49;98963.34;;;14.78;100.00
50933;BME280;36921;49.006;9.292;2022-07-31T04:53:14;98970.91;;;14.95;100.00
50933;BME280;36921;49.006;9.292;2022-07-31T04:55:41;98963.31;;;15.15;100.00
50933;BME280;36921;49.006;9.292;2022-07-31T04:58:06;98961.75;;;15.38;100.00
50933;BME280;36921;49.006;9.292;2022-07-31T05:00:32;98952.69;;;15.55;100.00
50933;BME280;36921;49.006;9.292;2022-07-31T05:02:57;98951.00;;;15.73;100.00
50933;BME280;36921;49.006;9.292;2022-07-31T05:05:23;98954.97;;;16.00;97.36
50933;BME280;36921;49.006;9.292;2022-07-31T05:07:48;98954.75;;;16.26;91.84
50933;BME280;36921;49.006;9.292;2022-07-31T05:10:14;98958.09;;;16.75;91.51
50933;BME280;36921;49.006;9.292;2022-07-31T05:12:59;98944.63;;;17.08;84.83
50933;BME280;36921;49.006;9.292;2022-07-31T05:15:25;98953.97;;;17.53;82.45
50933;BME280;36921;49.006;9.292;2022-07-31T05:17:50;98952.72;;;17.89;81.32
50933;BME280;36921;49.006;9.292;2022-07-31T05:20:16;98944.41;;;18.18;79.39
50933;BME280;36921;49.006;9.292;2022-07-31T05:22:41;98949.47;;;18.43;77.34
50933;BME280;36921;49.006;9.292;2022-07-31T05:25:07;98942.75;;;18.73;74.02
50933;BME280;36921;49.006;9.292;2022-07-31T05:27:33;98948.50;;;19.10;71.00
50933;BME280;36921;49.006;9.292;2022-07-31T05:29:58;98944.59;;;19.28;69.79
50933;BME280;36921;49.006;9.292;2022-07-31T05:32:24;98938.72;;;19.19;69.77
50933;BME280;36921;49.006;9.292;2022-07-31T05:34:49;98945.56;;;19.17;68.80
50933;BME280;36921;49.006;9.292;2022-07-31T05:37:15;98945.38;;;19.23;70.94
50933;BME280;36921;49.006;9.292;2022-07-31T05:39:40;98951.13;;;19.00;69.40
50933;BME280;36921;49.006;9.292;2022-07-31T05:42:06;98955.13;;;18.92;71.12
50933;BME280;36921;49.006;9.292;2022-07-31T05:44:31;98952.50;;;18.80;69.73
50933;BME280;36921;49.006;9.292;2022-07-31T05:46:57;98957.75;;;18.82;69.69
50933;BME280;36921;49.006;9.292;2022-07-31T05:49:23;98946.09;;;18.92;68.92
50933;BME280;36921;49.006;9.292;2022-07-31T05:51:50;98956.72;;;18.88;69.93
50933;BME280;36921;49.006;9.292;2022-07-31T05:54:19;98956.66;;;19.05;69.25
50933;BME280;36921;49.006;9.292;2022-07-31T05:56:44;98947.66;;;19.32;66.55
50933;BME280;36921;49.006;9.292;2022-07-31T05:59:10;98956.34;;;19.23;67.32
50933;BME280;36921;49.006;9.292;2022-07-31T06:01:36;98958.44;;;19.16;68.27
50933;BME280;36921;49.006;9.292;2022-07-31T06:04:01;98951.66;;;19.46;66.47
50933;BME280;36921;49.006;9.292;2022-07-31T06:06:27;98957.25;;;19.78;66.13
50933;BME280;36921;49.006;9.292;2022-07-31T06:08:52;98956.78;;;19.86;64.23
50933;BME280;36921;49.006;9.292;2022-07-31T06:11:17;98959.19;;;20.10;63.77
50933;BME280;36921;49.006;9.292;2022-07-31T06:13:43;98963.16;;;20.29;63.04
50933;BME280;36921;49.006;9.292;2022-07-31T06:16:14;98964.94;;;20.46;62.31
50933;BME280;36921;49.006;9.292;2022-07-31T06:18:40;98958.47;;;20.57;61.21
50933;BME280;36921;49.006;9.292;2022-07-31T06:21:06;98964.47;;;20.54;62.11
50933;BME280;36921;49.006;9.292;2022-07-31T06:23:31;98962.50;;;20.49;61.66
50933;BME280;36921;49.006;9.292;2022-07-31T06:25:57;98962.63;;;20.65;61.94
50933;BME280;36921;49.006;9.292;2022-07-31T06:28:22;98956.09;;;20.76;62.07
50933;BME280;36921;49.006;9.292;2022-07-31T06:30:48;98960.31;;;20.94;60.55
50933;BME280;36921;49.006;9.292;2022-07-31T06:33:13;98962.19;;;20.83;61.28
50933;BME280;36921;49.006;9.292;2022-07-31T06:35:39;98968.06;;;21.02;61.16
50933;BME280;36921;49.006;9.292;2022-07-31T06:38:04;98970.91;;;21.22;60.95
50933;BME280;36921;49.006;9.292;2022-07-31T06:40:29;98971.13;;;21.99;58.09
50933;BME280;36921;49.006;9.292;2022-07-31T06:42:55;98973.38;;;22.38;57.20
50933;BME280;36921;49.006;9.292;2022-07-31T06:45:20;98969.97;;;22.92;54.71
50933;BME280;36921;49.006;9.292;2022-07-31T06:47:46;98970.81;;;22.78;54.76
50933;BME280;36921;49.006;9.292;2022-07-31T06:50:11;98957.78;;;23.14;53.61
50933;BME280;36921;49.006;9.292;2022-07-31T06:52:37;98961.31;;;23.25;53.69
50933;BME280;36921;49.006;9.292;2022-07-31T06:55:02;98973.44;;;23.24;53.38
50933;BME280;36921;49.006;9.292;2022-07-31T06:57:28;98970.75;;;23.68;52.58
50933;BME280;36921;49.006;9.292;2022-07-31T06:59:53;98967.47;;;23.66;52.98
50933;BME280;36921;49.006;9.292;2022-07-31T07:02:19;98971.94;;;24.01;52.05
50933;BME280;36921;49.006;9.292;2022-07-31T07:04:44;98973.59;;;23.58;53.77
50933;BME280;36921;49.006;9.292;2022-07-31T07:07:10;98972.41;;;23.69;52.40
50933;BME280;36921;49.006;9.292;2022-07-31T07:09:36;98973.56;;;24.42;51.16
50933;BME280;36921;49.006;9.292;2022-07-31T07:12:01;98961.66;;;25.67;47.45
50933;BME280;36921;49.006;9.292;2022-07-31T07:14:27;98967.34;;;26.13;45.81
50933;BME280;36921;49.006;9.292;2022-07-31T07:16:52;98959.28;;;25.98;45.55
50933;BME280;36921;49.006;9.292;2022-07-31T07:19:17;98955.56;;;25.89;45.89
50933;BME280;36921;49.006;9.292;2022-07-31T07:21:43;98961.69;;;25.24;47.26
50933;BME280;36921;49.006;9.292;2022-07-31T07:24:09;98966.63;;;25.27;47.23
50933;BME280;36921;49.006;9.292;2022-07-31T07:26:35;98958.66;;;25.82;45.90
50933;BME280;36921;49.006;9.292;2022-07-31T07:29:00;98955.31;;;26.37;44.86
50933;BME280;36921;49.006;9.292;2022-07-31T07:31:26;98952.25;;;26.99;42.73
50933;BME280;36921;49.006;9.292;2022-07-31T07:33:52;98961.19;;;26.82;43.47
50933;BME280;36921;49.006;9.292;2022-07-31T07:36:19;98952.94;;;26.63;43.36
50933;BME280;36921;49.006;9.292;2022-07-31T07:38:45;98960.97;;;25.75;45.25
50933;BME280;36921;49.006;9.292;2022-07-31T07:41:10;98963.78;;;25.32;45.43
50933;BME280;36921;49.006;9.292;2022-07-31T07:43:36;98967.81;;;25.21;46.00
50933;BME280;36921;49.006;9.292;2022-07-31T07:46:01;98961.16;;;25.22;44.59
50933;BME280;36921;49.006;9.292;2022-07-31T07:48:26;98957.59;;;24.92;46.49
50933;BME280;36921;49.006;9.292;2022-07-31T07:50:52;98962.94;;;24.83;45.84
50933;BME280;36921;49.006;9.292;2022-07-31T07:53:17;98965.19;;;24.81;46.09
50933;BME280;36921;49.006;9.292;2022-07-31T07:55:42;98961.63;;;24.76;46.09
50933;BME280;36921;49.006;9.292;2022-07-31T07:58:08;98953.47;;;24.65;46.25
50933;BME280;36921;49.006;9.292;2022-07-31T08:00:33;98956.88;;;24.52;45.79
50933;BME280;36921;49.006;9.292;2022-07-31T08:02:59;98962.22;;;24.73;46.02
50933;BME280;36921;49.006;9.292;2022-07-31T08:05:24;98956.13;;;25.00;44.88
50933;BME280;36921;49.006;9.292;2022-07-31T08:07:50;98955.06;;;24.71;46.30
50933;BME280;36921;49.006;9.292;2022-07-31T08:10:15;98956.94;;;25.00;45.79
50933;BME280;36921;49.006;9.292;2022-07-31T08:12:44;98962.50;;;25.24;44.38
50933;BME280;36921;49.006;9.292;2022-07-31T08:15:09;98954.88;;;25.35;45.35
50933;BME280;36921;49.006;9.292;2022-07-31T08:17:35;98952.97;;;25.73;44.41
50933;BME280;36921;49.006;9.292;2022-07-31T08:20:01;98959.41;;;26.07;44.15
50933;BME280;36921;49.006;9.292;2022-07-31T08:22:26;98951.50;;;26.79;42.11
50933;BME280;36921;49.006;9.292;2022-07-31T08:24:51;98948.88;;;27.29;40.28
50933;BME280;36921;49.006;9.292;2022-07-31T08:27:17;98949.06;;;28.65;38.47
50933;BME280;36921;49.006;9.292;2022-07-31T08:29:49;98945.19;;;30.32;35.59
50933;BME280;36921;49.006;9.292;2022-07-31T08:32:15;98934.78;;;31.86;33.33
50933;BME280;36921;49.006;9.292;2022-07-31T08:34:41;98930.31;;;33.83;28.78
50933;BME280;36921;49.006;9.292;2022-07-31T08:37:07;98928.25;;;35.28;26.96
50933;BME280;36921;49.006;9.292;2022-07-31T08:39:32;98919.69;;;35.76;26.29
50933;BME280;36921;49.006;9.292;2022-07-31T08:41:58;98927.44;;;34.80;27.38
50933;BME280;36921;49.006;9.292;2022-07-31T08:44:24;98928.31;;;34.84;27.36
50933;BME280;36921;49.006;9.292;2022-07-31T08:46:52;98920.69;;;37.61;24.02
50933;BME280;36921;49.006;9.292;2022-07-31T08:49:25;98928.53;;;37.21;24.29
50933;BME280;36921;49.006;9.292;2022-07-31T08:51:51;98923.31;;;38.78;22.50
50933;BME280;36921;49.006;9.292;2022-07-31T08:54:18;98920.88;;;39.24;22.13
50933;BME280;36921;49.006;9.292;2022-07-31T08:56:44;98919.34;;;38.11;22.77
50933;BME280;36921;49.006;9.292;2022-07-31T08:59:11;98920.22;;;38.49;22.11
50933;BME280;36921;49.006;9.292;2022-07-31T09:01:36;98920.72;;;39.55;21.29
50933;BME280;36921;49.006;9.292;2022-07-31T09:04:03;98920.59;;;38.48;21.07
50933;BME280;36921;49.006;9.292;2022-07-31T09:06:29;98915.03;;;38.99;21.21
50933;BME280;36921;49.006;9.292;2022-07-31T09:08:55;98921.50;;;40.25;20.29
50933;BME280;36921;49.006;9.292;2022-07-31T09:11:21;98904.16;;;40.66;20.68
50933;BME280;36921;49.006;9.292;2022-07-31T09:14:01;98915.97;;;40.93;19.78
50933;BME280;36921;49.006;9.292;2022-07-31T09:16:28;98915.44;;;39.50;21.41
50933;BME280;36921;49.006;9.292;2022-07-31T09:19:02;98907.84;;;41.02;20.55
50933;BME280;36921;49.006;9.292;2022-07-31T09:21:38;98906.50;;;40.24;20.08
50933;BME280;36921;49.006;9.292;2022-07-31T09:24:04;98902.97;;;40.99;20.11
50933;BME280;36921;49.006;9.292;2022-07-31T09:26:33;98900.09;;;41.60;19.05
50933;BME280;36921;49.006;9.292;2022-07-31T09:28:59;98898.66;;;39.85;20.81
50933;BME280;36921;49.006;9.292;2022-07-31T09:31:34;98896.63;;;39.90;20.46
50933;BME280;36921;49.006;9.292;2022-07-31T09:34:00;98902.84;;;39.43;20.34
50933;BME280;36921;49.006;9.292;2022-07-31T09:36:25;98901.31;;;39.57;20.64
50933;BME280;36921;49.006;9.292;2022-07-31T09:38:51;98896.13;;;39.73;20.55
50933;BME280;36921;49.006;9.292;2022-07-31T09:41:19;98889.25;;;39.74;21.04
50933;BME280;36921;49.006;9.292;2022-07-31T09:43:55;98887.81;;;40.16;20.16
50933;BME280;36921;49.006;9.292;2022-07-31T09:46:21;98897.19;;;39.43;20.65
50933;BME280;36921;49.006;9.292;2022-07-31T09:48:51;98879.78;;;40.29;20.09
50933;BME280;36921;49.006;9.292;2022-07-31T09:51:17;98887.91;;;40.45;19.82
50933;BME280;36921;49.006;9.292;2022-07-31T09:53:44;98885.53;;;37.88;22.19
50933;BME280;36921;49.006;9.292;2022-07-31T09:56:11;98884.72;;;35.58;23.87
50933;BME280;36921;49.006;9.292;2022-07-31T09:58:38;98882.34;;;34.77;25.04
50933;BME280;36921;49.006;9.292;2022-07-31T10:01:04;98885.81;;;34.86;25.26
50933;BME280;36921;49.006;9.292;2022-07-31T10:03:35;98877.56;;;35.44;24.65
50933;BME280;36921;49.006;9.292;2022-07-31T10:06:02;98877.34;;;35.69;23.90
50933;BME280;36921;49.006;9.292;2022-07-31T10:08:33;98850.00;;;37.54;23.62
50933;BME280;36921;49.006;9.292;2022-07-31T10:11:00;98869.47;;;37.62;22.83
50933;BME280;36921;49.006;9.292;2022-07-31T10:13:27;98856.81;;;38.50;21.62
50933;BME280;36921;49.006;9.292;2022-07-31T10:15:54;98868.66;;;38.26;22.13
50933;BME280;36921;49.006;9.292;2022-07-31T10:18:23;98858.28;;;40.21;21.36
50933;BME280;36921;49.006;9.292;2022-07-31T10:20:54;98857.34;;;39.15;21.72
50933;BME280;36921;49.006;9.292;2022-07-31T10:23:20;98854.69;;;39.36;21.19
50933;BME280;36921;49.006;9.292;2022-07-31T10:25:56;98865.28;;;40.81;20.56
50933;BME280;36921;49.006;9.292;2022-07-31T10:28:23;98856.75;;;40.95;19.89
50933;BME280;36921;49.006;9.292;2022-07-31T10:30:49;98852.03;;;42.01;19.59
50933;BME280;36921;49.006;9.292;2022-07-31T10:33:15;98845.81;;;41.22;20.00
50933;BME280;36921;49.006;9.292;2022-07-31T10:36:20;98849.06;;;41.17;19.77
50933;BME280;36921;49.006;9.292;2022-07-31T10:39:17;98833.63;;;41.07;20.23
50933;BME280;36921;49.006;9.292;2022-07-31T10:42:00;98836.81;;;41.45;19.81
50933;BME280;36921;49.006;9.292;2022-07-31T10:46:56;98817.75;;;41.42;20.08
50933;BME280;36921;49.006;9.292;2022-07-31T10:49:39;98848.50;;;39.93;21.10
50933;BME280;36921;49.006;9.292;2022-07-31T10:52:05;98834.84;;;40.38;21.40
50933;BME280;36921;49.006;9.292;2022-07-31T10:54:38;98830.41;;;41.12;20.44
50933;BME280;36921;49.006;9.292;2022-07-31T10:57:04;98829.59;;;40.94;20.68
50933;BME280;36921;49.006;9.292;2022-07-31T10:59:30;98828.34;;;41.27;20.16
50933;BME280;36921;49.006;9.292;2022-07-31T11:01:55;98810.13;;;40.96;20.20
50933;BME280;36921;49.006;9.292;2022-07-31T11:04:31;98807.28;;;41.07;20.00
50933;BME280;36921;49.006;9.292;2022-07-31T11:06:57;98812.59;;;40.72;20.92
50933;BME280;36921;49.006;9.292;2022-07-31T11:09:24;98807.88;;;37.71;23.80
50933;BME280;36921;49.006;9.292;2022-07-31T11:11:50;98809.34;;;40.49;21.63
50933;BME280;36921;49.006;9.292;2022-07-31T11:14:15;98804.47;;;40.71;20.56
50933;BME280;36921;49.006;9.292;2022-07-31T11:16:51;98792.91;;;36.11;24.68
50933;BME280;36921;49.006;9.292;2022-07-31T11:19:17;98790.63;;;38.58;23.12
50933;BME280;36921;49.006;9.292;2022-07-31T11:21:43;98773.38;;;39.33;22.49
50933;BME280;36921;49.006;9.292;2022-07-31T11:24:19;98785.19;;;38.87;23.00
50933;BME280;36921;49.006;9.292;2022-07-31T11:26:55;98788.81;;;38.36;23.53
50933;BME280;36921;49.006;9.292;2022-07-31T11:29:32;98782.88;;;37.40;23.94
50933;BME280;36921;49.006;9.292;2022-07-31T11:32:20;98774.34;;;38.93;22.99
50933;BME280;36921;49.006;9.292;2022-07-31T11:34:51;98769.81;;;39.51;21.39
50933;BME280;36921;49.006;9.292;2022-07-31T11:37:22;98773.25;;;35.72;24.91
50933;BME280;36921;49.006;9.292;2022-07-31T11:39:48;98768.94;;;34.21;27.34
50933;BME280;36921;49.006;9.292;2022-07-31T11:42:13;98759.09;;;34.59;27.03
50933;BME280;36921;49.006;9.292;2022-07-31T11:44:39;98753.69;;;34.86;26.29
50933;BME280;36921;49.006;9.292;2022-07-31T11:47:05;98743.03;;;36.12;25.77
50933;BME280;36921;49.006;9.292;2022-07-31T11:49:31;98753.09;;;38.17;23.26
50933;BME280;36921;49.006;9.292;2022-07-31T11:52:04;98744.69;;;38.72;23.37
50933;BME280;36921;49.006;9.292;2022-07-31T11:54:30;98743.53;;;38.80;23.06
50933;BME280;36921;49.006;9.292;2022-07-31T11:56:56;98742.09;;;39.12;22.69
50933;BME280;36921;49.006;9.292;2022-07-31T11:59:35;98739.50;;;39.58;22.98
50933;BME280;36921;49.006;9.292;2022-07-31T12:02:08;98731.19;;;39.07;23.34
50933;BME280;36921;49.006;9.292;2022-07-31T12:04:35;98729.84;;;37.93;24.16
50933;BME280;36921;49.006;9.292;2022-07-31T12:07:10;98730.31;;;36.98;25.01
50933;BME280;36921;49.006;9.292;2022-07-31T12:09:36;98735.66;;;35.84;26.20
50933;BME280;36921;49.006;9.292;2022-07-31T12:12:03;98730.81;;;35.23;26.48
50933;BME280;36921;49.006;9.292;2022-07-31T12:16:54;98731.75;;;36.58;26.01
50933;BME280;36921;49.006;9.292;2022-07-31T12:19:27;98718.22;;;37.27;24.50
50933;BME280;36921;49.006;9.292;2022-07-31T12:21:53;98716.72;;;37.03;24.66
50933;BME280;36921;49.006;9.292;2022-07-31T12:24:19;98718.22;;;39.06;23.22
50933;BME280;36921;49.006;9.292;2022-07-31T12:26:55;98724.56;;;41.15;21.60
50933;BME280;36921;49.006;9.292;2022-07-31T12:29:36;98713.97;;;41.27;20.25
50933;BME280;36921;49.006;9.292;2022-07-31T12:32:02;98707.09;;;41.21;20.32
50933;BME280;36921;49.006;9.292;2022-07-31T12:34:39;98699.91;;;41.79;20.41
50933;BME280;36921;49.006;9.292;2022-07-31T12:37:06;98698.78;;;40.27;21.04
50933;BME280;36921;49.006;9.292;2022-07-31T12:39:37;98707.41;;;36.00;24.22
50933;BME280;36921;49.006;9.292;2022-07-31T12:42:03;98708.59;;;37.32;24.32
50933;BME280;36921;49.006;9.292;2022-07-31T12:46:58;98684.25;;;35.25;25.59
50933;BME280;36921;49.006;9.292;2022-07-31T12:49:24;98694.22;;;35.42;26.06
50933;BME280;36921;49.006;9.292;2022-07-31T12:51:49;98693.22;;;35.31;25.93
50933;BME280;36921;49.006;9.292;2022-07-31T12:54:15;98670.47;;;34.81;26.28
50933;BME280;36921;49.006;9.292;2022-07-31T12:56:41;98684.69;;;34.88;25.95
50933;BME280;36921;49.006;9.292;2022-07-31T12:59:07;98666.41;;;34.28;26.38
50933;BME280;36921;49.006;9.292;2022-07-31T13:01:33;98684.88;;;33.65;27.26
50933;BME280;36921;49.006;9.292;2022-07-31T13:03:59;98691.31;;;34.13;26.91
50933;BME280;36921;49.006;9.292;2022-07-31T13:06:26;98684.69;;;33.90;27.33
50933;BME280;36921;49.006;9.292;2022-07-31T13:08:52;98685.47;;;34.69;26.79
50933;BME280;36921;49.006;9.292;2022-07-31T13:11:17;98667.31;;;36.33;25.24